Weather reports worldwide

Advertisment
Malaga,Puerto, Spain (8479): temperature & dewpoint: 13.01.2021 05:00:00 - 19.01.2021 05:00:00 (CET)Malaga,Puerto, Spain (8479): wind speed & gusts: 13.01.2021 05:00:00 - 19.01.2021 05:00:00 (CET)Malaga,Puerto, Spain (8479): wind direction: 13.01.2021 05:00:00 - 19.01.2021 05:00:00 (CET)Malaga,Puerto, Spain (8479): reduced air pressure: 13.01.2021 05:00:00 - 19.01.2021 05:00:00 (CET)Malaga,Puerto, Spain (8479): precipitation: 13.01.2021 05:00:00 - 19.01.2021 05:00:00 (CET)
Date & Time tt [°C] td [°C] ff [km/h] ff [kn] fx [km/h] fx [kn] dd ppp [hPa] rr [mm]
19.01.2021 05:00:00 - - - - - - - - -
19.01.2021 04:00:00 9,2 3,0 10 5 20 11 NNW 1028,9 0,0
19.01.2021 03:00:00 9,4 3,2 9 5 19 10 NNW 1029,1 0,0
19.01.2021 02:00:00 - - - - - - - - -
19.01.2021 01:00:00 10,0 3,4 12 7 19 11 NNW 1029,4 -
19.01.2021 00:00:00 10,2 3,9 8 4 18 10 N 1029,4 0,0
18.01.2021 23:00:00 10,6 4,5 9 5 16 9 N 1029,4 0,0
18.01.2021 22:00:00 - - - - - - - - -
18.01.2021 21:00:00 - - - - - - - - -
18.01.2021 20:00:00 - - - - - - - - -
18.01.2021 19:00:00 - - - - - - - - -
18.01.2021 18:00:00 - - - - - - - - -
18.01.2021 17:00:00 - - - - - - - - -
18.01.2021 16:00:00 - - - - - - - - -
18.01.2021 15:00:00 - - - - - - - - -
18.01.2021 14:00:00 - - - - - - - - -
18.01.2021 13:00:00 16,4 4,8 3 2 10 5 SE 1028,8 -
18.01.2021 12:00:00 17,7 2,9 3 1 5 3 S 1029,3 0,0
18.01.2021 11:00:00 16,8 2,7 0 0 12 7 W 1029,2 0,0
18.01.2021 10:00:00 10,8 0,2 9 5 14 7 NNW 1028,4 0,0
18.01.2021 09:00:00 9,3 0,0 9 5 13 7 NNW 1027,8 0,0
18.01.2021 08:00:00 9,1 0,0 8 4 16 8 NNW 1027,5 0,0
18.01.2021 07:00:00 9,0 0,9 6 3 13 7 NNW 1027,1 -
18.01.2021 06:00:00 9,5 0,4 8 4 14 7 NNW 1026,6 0,0
18.01.2021 05:00:00 9,3 1,3 6 3 13 7 NW 1026,7 0,0
18.01.2021 04:00:00 9,9 1,1 5 3 14 8 NNW 1026,9 0,0
18.01.2021 03:00:00 10,2 1,1 7 4 14 7 NNW 1026,9 0,0
18.01.2021 02:00:00 10,3 1,7 8 4 17 9 NNW 1027,2 0,0
18.01.2021 01:00:00 10,6 2,1 8 5 17 9 NNW 1027,9 -
18.01.2021 00:00:00 10,7 3,8 8 4 13 7 NNW 1027,9 0,0
17.01.2021 23:00:00 - - - - - - - - -
17.01.2021 22:00:00 - - - - - - - - -
17.01.2021 21:00:00 - - - - - - - - -
17.01.2021 20:00:00 - - - - - - - - -
17.01.2021 19:00:00 - - - - - - - - -
17.01.2021 18:00:00 14,6 8,5 3 2 9 5 SSE 1027,7 0,0
17.01.2021 17:00:00 15,1 8,1 5 3 11 6 SSE 1027,8 0,0
17.01.2021 16:00:00 16,0 7,4 6 4 12 6 S 1027,9 0,0
17.01.2021 15:00:00 15,6 6,2 7 4 12 6 SSW 1028,1 0,0
17.01.2021 14:00:00 15,4 5,0 9 5 16 9 SSW 1028,9 0,0
17.01.2021 13:00:00 16,8 4,8 6 3 15 8 WSW 1029,9 -
17.01.2021 12:00:00 15,5 4,5 5 3 13 7 WSW 1030,6 0,0
17.01.2021 11:00:00 12,8 2,9 5 3 13 7 NW 1030,9 0,0
17.01.2021 10:00:00 10,0 0,9 10 5 18 10 NW 1031,0 0,0
17.01.2021 09:00:00 8,6 0,6 9 5 18 10 NNW 1030,8 0,0
17.01.2021 08:00:00 8,3 0,9 8 4 18 10 NNW 1031,1 0,0
17.01.2021 07:00:00 8,5 0,9 10 6 17 9 NNW 1030,8 -
17.01.2021 06:00:00 8,7 1,7 8 4 15 8 NNW 1030,6 0,0
17.01.2021 05:00:00 8,9 2,5 6 4 15 8 NNW 1030,4 0,0
17.01.2021 04:00:00 9,1 3,0 8 4 16 9 N 1030,6 0,0
17.01.2021 03:00:00 9,4 3,6 9 5 16 9 NNW 1030,9 0,0
17.01.2021 02:00:00 9,6 3,8 9 5 16 9 N 1031,1 0,0
17.01.2021 01:00:00 9,8 3,9 11 6 18 10 N 1031,4 -
17.01.2021 00:00:00 10,5 3,9 10 5 16 9 N 1031,4 0,0
16.01.2021 23:00:00 11,3 4,5 7 4 13 7 N 1031,2 0,0
16.01.2021 22:00:00 12,4 4,1 4 2 11 6 NNW 1031,1 0,0
16.01.2021 21:00:00 13,5 4,8 5 3 13 7 N 1030,7 0,0
16.01.2021 20:00:00 13,8 5,6 7 4 20 11 ENE 1030,4 0,0
16.01.2021 19:00:00 13,7 6,5 11 6 25 13 ENE 1029,6 -
16.01.2021 18:00:00 14,4 7,4 9 5 28 15 E 1029,1 0,0
16.01.2021 17:00:00 14,7 9,0 13 7 26 14 E 1028,2 0,0
16.01.2021 16:00:00 15,8 8,5 7 4 28 15 ESE 1027,9 0,0
16.01.2021 15:00:00 15,4 8,1 13 7 27 15 ESE 1027,5 0,0
16.01.2021 14:00:00 16,0 5,3 16 9 32 18 ENE 1027,1 0,0
16.01.2021 13:00:00 19,7 0,2 5 3 22 12 WSW 1026,8 -
16.01.2021 12:00:00 16,3 -1,0 14 8 35 19 W 1026,8 0,0
16.01.2021 11:00:00 14,4 -1,0 14 8 29 16 WSW 1026,8 0,0
16.01.2021 10:00:00 12,3 -1,2 10 6 23 12 WNW 1026,1 0,0
16.01.2021 09:00:00 10,8 -1,7 9 5 22 12 WNW 1025,4 0,0
16.01.2021 08:00:00 10,6 -1,4 9 5 23 13 W 1025,5 0,0
16.01.2021 07:00:00 10,9 -1,0 12 6 29 16 WNW 1025,0 -
16.01.2021 06:00:00 10,9 -1,0 16 9 32 17 W 1024,8 0,0
16.01.2021 05:00:00 11,2 -0,7 11 6 26 14 W 1024,6 0,0
16.01.2021 04:00:00 11,3 -0,5 12 6 29 16 W 1024,8 0,0
16.01.2021 03:00:00 12,0 -0,3 13 7 29 16 W 1024,9 0,0
16.01.2021 02:00:00 12,1 0,2 9 5 27 14 W 1025,1 0,0
16.01.2021 01:00:00 12,4 0,4 10 5 24 13 W 1025,4 -
16.01.2021 00:00:00 12,6 0,6 11 6 21 12 W 1025,7 0,0
15.01.2021 23:00:00 12,8 0,4 4 2 23 12 WNW 1025,8 0,0
15.01.2021 22:00:00 13,5 0,2 11 6 24 13 WSW 1025,1 0,0
15.01.2021 21:00:00 14,3 -0,3 14 8 24 13 W 1025,0 0,0
15.01.2021 20:00:00 15,2 -0,5 9 5 20 11 W 1024,7 0,0
15.01.2021 19:00:00 16,5 -0,7 7 4 24 13 W 1024,3 -
15.01.2021 18:00:00 18,2 -1,2 11 6 29 16 WNW 1023,6 0,0
15.01.2021 17:00:00 19,6 -0,5 13 7 28 15 WNW 1023,3 0,0
15.01.2021 16:00:00 21,0 2,7 5 3 23 12 W 1023,4 0,0
15.01.2021 15:00:00 16,8 5,5 18 10 26 14 ENE 1023,8 0,0
15.01.2021 14:00:00 18,3 1,7 13 7 22 12 SSW 1024,9 0,0
15.01.2021 13:00:00 16,5 1,3 10 5 24 13 W 1026,1 -
15.01.2021 12:00:00 14,5 2,1 8 5 23 13 WSW 1027,2 0,0
15.01.2021 11:00:00 12,4 0,9 9 5 21 11 W 1027,7 0,0
15.01.2021 10:00:00 11,0 0,6 7 4 13 7 WNW 1027,2 0,0
15.01.2021 09:00:00 8,9 0,4 6 4 13 7 NW 1026,8 0,0
15.01.2021 08:00:00 8,1 -0,3 7 4 16 8 NNW 1026,7 0,0
15.01.2021 07:00:00 8,5 0,0 6 4 20 11 NW 1026,4 -
15.01.2021 06:00:00 9,5 0,6 10 5 18 10 WNW 1026,1 0,0
15.01.2021 05:00:00 9,6 0,6 9 5 26 14 WNW 1026,1 0,0
15.01.2021 04:00:00 10,1 0,6 14 7 29 16 W 1025,8 0,0
15.01.2021 03:00:00 10,5 0,9 17 9 33 18 W 1025,6 0,0
15.01.2021 02:00:00 10,6 0,4 16 8 32 17 W 1025,6 0,0
15.01.2021 01:00:00 10,8 0,2 13 7 30 16 W 1025,9 -
15.01.2021 00:00:00 11,2 0,0 16 8 31 17 W 1025,6 0,0
14.01.2021 23:00:00 11,6 0,0 15 8 35 19 W 1025,6 0,0
14.01.2021 22:00:00 12,4 -1,4 13 7 30 16 W 1025,2 0,0
14.01.2021 21:00:00 12,7 -1,7 14 8 29 16 W 1025,3 0,0
14.01.2021 20:00:00 13,6 -2,0 16 8 32 17 W 1025,0 0,0
14.01.2021 19:00:00 14,4 -1,7 19 10 32 18 WNW 1025,0 -
14.01.2021 18:00:00 15,5 -2,0 16 9 33 18 WNW 1024,6 0,0
14.01.2021 17:00:00 17,0 -1,7 14 8 28 15 WNW 1024,4 0,0
14.01.2021 16:00:00 18,2 -1,7 13 7 31 17 WNW 1024,3 0,0
14.01.2021 15:00:00 17,8 -2,5 18 10 35 19 WNW 1024,1 0,0
14.01.2021 14:00:00 18,2 -1,7 14 8 32 18 W 1024,9 0,0
14.01.2021 13:00:00 17,0 -1,7 16 8 39 21 W 1026,1 -
14.01.2021 12:00:00 15,7 -0,5 13 7 34 18 W 1027,0 0,0
14.01.2021 11:00:00 14,0 -0,5 13 7 27 15 WSW 1027,4 0,0
14.01.2021 10:00:00 12,1 -1,7 9 5 24 13 W 1027,5 0,0
14.01.2021 09:00:00 11,2 -1,7 13 7 26 14 W 1027,3 0,0
14.01.2021 08:00:00 10,6 -2,2 11 6 26 14 W 1027,4 0,0
14.01.2021 07:00:00 10,2 -1,4 10 5 26 14 W 1027,2 -
14.01.2021 06:00:00 10,2 -1,2 16 8 24 13 W 1027,3 0,0
14.01.2021 05:00:00 10,4 -1,0 11 6 24 13 W 1027,8 0,0
14.01.2021 04:00:00 10,1 -1,2 10 6 24 13 W 1028,1 0,0
14.01.2021 03:00:00 11,2 -1,0 10 5 24 13 W 1028,1 0,0
14.01.2021 02:00:00 10,6 -1,0 9 5 22 12 W 1028,6 0,0
14.01.2021 01:00:00 10,5 -0,3 9 5 20 11 W 1029,1 -
14.01.2021 00:00:00 9,0 1,7 5 3 13 7 NNW 1029,5 0,0
13.01.2021 23:00:00 9,1 2,3 10 6 15 8 NNW 1029,6 0,0
13.01.2021 22:00:00 9,5 3,0 7 4 11 6 NNW 1029,6 0,0
13.01.2021 21:00:00 10,4 3,9 6 3 14 7 NNW 1029,4 0,0
13.01.2021 20:00:00 10,9 4,1 9 5 15 8 NNW 1029,3 0,0
13.01.2021 19:00:00 12,3 1,9 5 3 11 6 NNW 1029,1 -
13.01.2021 18:00:00 14,3 2,5 6 4 9 5 E 1029,0 0,0
13.01.2021 17:00:00 15,1 1,7 4 2 11 6 ESE 1028,9 0,0
13.01.2021 16:00:00 15,4 3,6 7 4 16 9 S 1029,0 0,0
13.01.2021 15:00:00 15,0 3,8 10 5 15 8 S 1028,9 0,0
13.01.2021 14:00:00 14,5 1,7 5 3 14 8 SE 1029,3 0,0
13.01.2021 13:00:00 14,7 0,2 8 4 18 10 WSW 1030,4 -
13.01.2021 12:00:00 13,4 1,1 7 4 16 9 WSW 1031,3 0,0
13.01.2021 11:00:00 11,5 0,9 6 3 14 7 W 1031,6 0,0
13.01.2021 10:00:00 9,2 0,4 6 3 11 6 W 1031,3 0,0
13.01.2021 09:00:00 7,5 0,4 8 4 13 7 NNW 1030,9 0,0
13.01.2021 08:00:00 6,4 0,2 7 4 14 8 NW 1030,7 0,0
13.01.2021 07:00:00 5,9 -0,3 10 5 17 9 W 1030,4 -
13.01.2021 06:00:00 6,7 0,0 11 6 16 9 NNW 1030,2 0,0
13.01.2021 05:00:00 7,0 0,2 6 3 14 8 WNW 1030,2 0,0

tt = temperature
td = dewpoint
ff = wind speed
fx = gusts
dd = wind direction
ppp = reduced air pressure
rr = precipitation

Next stations